createdAt,value
2019-04-16T00:00:42.476Z,98128.00
2019-04-16T00:04:43.153Z,98126.00
2019-04-16T00:08:49.011Z,98121.00
2019-04-16T00:12:58.115Z,98115.00
2019-04-16T00:16:58.993Z,98113.00
2019-04-16T00:21:01.789Z,98115.00
2019-04-16T00:25:04.137Z,98105.00
2019-04-16T00:29:06.045Z,98112.00
2019-04-16T00:33:07.789Z,98101.00
2019-04-16T00:37:09.714Z,98103.00
2019-04-16T00:41:10.678Z,98097.00
2019-04-16T00:45:11.881Z,98102.00
2019-04-16T00:49:12.908Z,98094.00
2019-04-16T00:53:13.913Z,98091.00
2019-04-16T00:57:17.681Z,98089.00
2019-04-16T01:01:17.665Z,98100.00
2019-04-16T01:05:18.556Z,98100.00
2019-04-16T01:09:19.434Z,98092.00
2019-04-16T01:13:21.771Z,98090.00
2019-04-16T01:17:23.108Z,98088.00
2019-04-16T01:21:23.984Z,98089.00
2019-04-16T01:25:24.958Z,98084.00
2019-04-16T01:29:25.936Z,98079.00
2019-04-16T01:33:28.725Z,98075.00
2019-04-16T01:37:37.437Z,98070.00
2019-04-16T01:41:38.310Z,98073.00
2019-04-16T01:45:39.200Z,98070.00
2019-04-16T01:49:42.144Z,98070.00
2019-04-16T01:53:42.986Z,98062.00
2019-04-16T01:57:43.945Z,98062.00
2019-04-16T02:01:44.956Z,98060.00
2019-04-16T02:05:45.977Z,98058.00
2019-04-16T02:09:46.922Z,98062.00
2019-04-16T02:13:48.297Z,98055.00
2019-04-16T02:17:49.142Z,98057.00
2019-04-16T02:21:50.024Z,98038.00
2019-04-16T02:25:51.321Z,98049.00
2019-04-16T02:29:53.809Z,98043.00
2019-04-16T02:33:54.845Z,98048.00
2019-04-16T02:37:55.725Z,98044.00
2019-04-16T02:41:58.081Z,98047.00
2019-04-16T02:45:59.545Z,98049.00
2019-04-16T02:50:01.613Z,98037.00
2019-04-16T02:54:13.684Z,98039.00
2019-04-16T02:58:25.130Z,98034.00
2019-04-16T03:02:34.008Z,98033.00
2019-04-16T03:06:35.005Z,98029.00
2019-04-16T03:10:36.095Z,98024.00
2019-04-16T03:14:36.956Z,98025.00
2019-04-16T03:18:48.792Z,98026.00
2019-04-16T03:22:50.062Z,98022.00
2019-04-16T03:26:51.285Z,98010.00
2019-04-16T03:30:52.320Z,98015.00
2019-04-16T03:34:54.084Z,98011.00
2019-04-16T03:38:55.061Z,98012.00
2019-04-16T03:42:58.900Z,97998.00
2019-04-16T03:46:58.811Z,98005.00
2019-04-16T03:51:00.537Z,97994.00
2019-04-16T03:55:03.502Z,98002.00
2019-04-16T03:59:04.402Z,97997.00
2019-04-16T04:03:05.949Z,97999.00
2019-04-16T04:07:09.033Z,97992.00
2019-04-16T04:11:10.722Z,97997.00
2019-04-16T04:15:12.279Z,97997.00
2019-04-16T04:19:15.392Z,97994.00
2019-04-16T04:23:15.973Z,97994.00
2019-04-16T04:27:19.285Z,97998.00
2019-04-16T04:31:19.748Z,97988.00
2019-04-16T04:35:22.124Z,97995.00
2019-04-16T04:39:23.414Z,97997.00
2019-04-16T04:43:24.376Z,97984.00
2019-04-16T04:47:25.275Z,97990.00
2019-04-16T04:51:26.181Z,97997.00
2019-04-16T04:55:27.160Z,97994.00
2019-04-16T04:59:28.055Z,98004.00
2019-04-16T05:03:34.146Z,98006.00
2019-04-16T05:07:35.109Z,98005.00
2019-04-16T05:11:36.108Z,98015.00
2019-04-16T05:15:36.996Z,98017.00
2019-04-16T05:19:37.888Z,98017.00
2019-04-16T05:23:38.775Z,98024.00
2019-04-16T05:27:41.284Z,98028.00
2019-04-16T05:31:42.616Z,98032.00
2019-04-16T05:35:43.587Z,98031.00
2019-04-16T05:39:44.469Z,98027.00
2019-04-16T05:43:45.340Z,98024.00
2019-04-16T05:47:48.798Z,98032.00
2019-04-16T05:51:49.703Z,98044.00
2019-04-16T05:55:57.399Z,98039.00
2019-04-16T05:59:58.031Z,98040.00
2019-04-16T06:03:59.108Z,98043.00
2019-04-16T06:08:10.499Z,98049.00
2019-04-16T06:12:11.478Z,98051.00
2019-04-16T06:16:26.333Z,98053.00
2019-04-16T06:20:29.133Z,98050.00
2019-04-16T06:24:32.370Z,98043.00
2019-04-16T06:28:39.615Z,98038.00
2019-04-16T06:32:54.698Z,98048.00
2019-04-16T06:36:57.507Z,98045.00
2019-04-16T06:41:03.021Z,98048.00
2019-04-16T06:45:07.187Z,98044.00
2019-04-16T06:49:28.325Z,98057.00
2019-04-16T06:53:47.715Z,98054.00
2019-04-16T06:58:08.658Z,98055.00
2019-04-16T07:02:26.542Z,98053.00
2019-04-16T07:06:46.114Z,98049.00
2019-04-16T07:11:00.962Z,98048.00
2019-04-16T07:15:04.185Z,98050.00
2019-04-16T07:19:10.301Z,98048.00
2019-04-16T07:23:08.242Z,98045.00
2019-04-16T07:27:09.265Z,98045.00
2019-04-16T07:31:14.863Z,98042.00
2019-04-16T07:35:19.624Z,98045.00
2019-04-16T07:39:29.218Z,98039.00
2019-04-16T07:43:46.722Z,98032.00
2019-04-16T07:48:07.008Z,98031.00
2019-04-16T07:52:12.116Z,98027.00
2019-04-16T07:56:15.052Z,98029.00
2019-04-16T08:00:16.464Z,98017.00
2019-04-16T08:04:28.261Z,98017.00
2019-04-16T08:08:24.331Z,98012.00
2019-04-16T08:12:30.604Z,98008.00
2019-04-16T08:16:26.025Z,98013.00
2019-04-16T08:20:27.244Z,98014.00
2019-04-16T08:24:33.246Z,98012.00
2019-04-16T08:28:34.118Z,98031.00
2019-04-16T08:32:35.039Z,98026.00
2019-04-16T08:36:36.115Z,98017.00
2019-04-16T08:40:37.057Z,97990.00
2019-04-16T08:44:38.394Z,98003.00
2019-04-16T08:48:39.300Z,98003.00
2019-04-16T08:52:41.828Z,98003.00
2019-04-16T08:56:43.343Z,98009.00
2019-04-16T09:00:47.628Z,98027.00
2019-04-16T09:04:48.739Z,98026.00
2019-04-16T09:09:11.586Z,98036.00
2019-04-16T09:13:05.535Z,98028.00
2019-04-16T09:17:11.367Z,98025.00
2019-04-16T09:21:12.673Z,98031.00
2019-04-16T09:25:32.413Z,98034.00
2019-04-16T09:29:52.379Z,98032.00
2019-04-16T09:33:57.932Z,98031.00
2019-04-16T09:38:13.049Z,98031.00
2019-04-16T09:42:12.327Z,98032.00
2019-04-16T09:46:21.619Z,98025.00
2019-04-16T09:50:16.279Z,98021.00
2019-04-16T09:54:17.292Z,98027.00
2019-04-16T09:58:22.179Z,98025.00
2019-04-16T10:02:25.146Z,98013.00
2019-04-16T10:06:26.262Z,98003.00
2019-04-16T10:10:27.947Z,98010.00
2019-04-16T10:14:30.071Z,98000.00
2019-04-16T10:18:34.415Z,98010.00
2019-04-16T10:22:33.799Z,98003.00
2019-04-16T10:26:34.851Z,98001.00
2019-04-16T10:30:38.009Z,97994.00
2019-04-16T10:34:38.992Z,98008.00
2019-04-16T10:38:53.882Z,97993.00
2019-04-16T10:43:13.682Z,98000.00
2019-04-16T10:47:19.557Z,97994.00
2019-04-16T10:51:21.313Z,97989.00
2019-04-16T10:55:26.859Z,97986.00
2019-04-16T10:59:46.345Z,97991.00
2019-04-16T11:03:51.961Z,97987.00
2019-04-16T11:07:54.751Z,97981.00
2019-04-16T11:11:55.655Z,97988.00
2019-04-16T11:15:58.614Z,97986.00
2019-04-16T11:20:00.152Z,97976.00
2019-04-16T11:24:01.548Z,97970.00
2019-04-16T11:28:02.747Z,97973.00
2019-04-16T11:32:03.989Z,97966.00
2019-04-16T11:36:17.809Z,97974.00
2019-04-16T11:40:08.258Z,97955.00
2019-04-16T11:44:15.502Z,97966.00
2019-04-16T11:48:12.529Z,97960.00
2019-04-16T11:52:13.560Z,97969.00
2019-04-16T11:56:14.631Z,97968.00
2019-04-16T12:00:17.984Z,97969.00
2019-04-16T12:04:20.971Z,97979.00
2019-04-16T12:08:29.742Z,97978.00
2019-04-16T12:12:35.472Z,97978.00
2019-04-16T12:16:55.022Z,97967.00
2019-04-16T12:21:00.935Z,97980.00
2019-04-16T12:25:21.338Z,97977.00
2019-04-16T12:29:30.169Z,97982.00
2019-04-16T12:33:39.135Z,97976.00
2019-04-16T12:37:58.514Z,97978.00
2019-04-16T12:42:07.438Z,97982.00
2019-04-16T12:46:16.361Z,97976.00
2019-04-16T12:50:25.174Z,97986.00
2019-04-16T12:54:37.907Z,97977.00
2019-04-16T12:58:41.054Z,97973.00
2019-04-16T13:02:46.923Z,97971.00
2019-04-16T13:06:49.685Z,97977.00
2019-04-16T13:10:58.252Z,97969.00
2019-04-16T13:15:10.262Z,97972.00
2019-04-16T13:19:29.651Z,97977.00
2019-04-16T13:23:35.806Z,97976.00
2019-04-16T13:27:38.700Z,97983.00
2019-04-16T13:31:39.714Z,97983.00
2019-04-16T13:35:40.671Z,97980.00
2019-04-16T13:39:59.286Z,97980.00
2019-04-16T13:44:07.925Z,97980.00
2019-04-16T13:48:16.525Z,97982.00
2019-04-16T13:52:11.068Z,97976.00
2019-04-16T13:56:18.493Z,97967.00
2019-04-16T14:00:24.261Z,97968.00
2019-04-16T14:04:30.310Z,97973.00
2019-04-16T14:08:27.923Z,97980.00
2019-04-16T14:12:41.609Z,97981.00
2019-04-16T14:16:32.017Z,97975.00
2019-04-16T14:20:33.008Z,97968.00
2019-04-16T14:24:33.858Z,97960.00
2019-04-16T14:28:40.143Z,97971.00
2019-04-16T14:32:37.715Z,97974.00
2019-04-16T14:36:38.818Z,97979.00
2019-04-16T14:40:42.360Z,97978.00
2019-04-16T14:44:47.319Z,97976.00
2019-04-16T14:48:48.327Z,97982.00
2019-04-16T14:52:49.355Z,97983.00
2019-04-16T14:56:52.165Z,97977.00
2019-04-16T15:01:04.439Z,97977.00
2019-04-16T15:05:07.655Z,97980.00
2019-04-16T15:09:25.648Z,97983.00
2019-04-16T15:13:46.811Z,97985.00
2019-04-16T15:17:52.346Z,97986.00
2019-04-16T15:22:14.412Z,97985.00
2019-04-16T15:26:16.641Z,97980.00
2019-04-16T15:30:19.664Z,97979.00
2019-04-16T15:34:25.613Z,97984.00
2019-04-16T15:38:37.268Z,97984.00
2019-04-16T15:42:40.175Z,97992.00
2019-04-16T15:46:49.038Z,97988.00
2019-04-16T15:50:51.914Z,97985.00
2019-04-16T15:55:06.835Z,97983.00
2019-04-16T15:59:15.897Z,97986.00
2019-04-16T16:03:30.986Z,97984.00
2019-04-16T16:07:32.369Z,97990.00
2019-04-16T16:11:44.314Z,97986.00
2019-04-16T16:15:43.951Z,97983.00
2019-04-16T16:19:44.818Z,97994.00
2019-04-16T16:23:46.334Z,97988.00
2019-04-16T16:27:47.415Z,97992.00
2019-04-16T16:31:48.459Z,97993.00
2019-04-16T16:35:57.749Z,97994.00
2019-04-16T16:39:52.342Z,97999.00
2019-04-16T16:43:53.396Z,98002.00
2019-04-16T16:47:54.413Z,98001.00
2019-04-16T16:52:15.361Z,98010.00
2019-04-16T16:56:21.113Z,98003.00
2019-04-16T17:00:39.938Z,98005.00
2019-04-16T17:04:42.874Z,98012.00
2019-04-16T17:08:43.989Z,98010.00
2019-04-16T17:12:44.896Z,98012.00
2019-04-16T17:16:45.906Z,98024.00
2019-04-16T17:20:50.052Z,98022.00
2019-04-16T17:24:49.953Z,98027.00
2019-04-16T17:28:50.972Z,98025.00
2019-04-16T17:32:52.055Z,98039.00
2019-04-16T17:36:53.608Z,98036.00
2019-04-16T17:40:59.593Z,98035.00
2019-04-16T17:45:16.524Z,98042.00
2019-04-16T17:49:19.424Z,98040.00
2019-04-16T17:53:34.204Z,98040.00
2019-04-16T17:57:49.127Z,98049.00
2019-04-16T18:01:58.125Z,98058.00
2019-04-16T18:06:03.773Z,98067.00
2019-04-16T18:10:08.195Z,98069.00
2019-04-16T18:14:14.078Z,98066.00
2019-04-16T18:18:17.180Z,98073.00
2019-04-16T18:22:20.283Z,98068.00
2019-04-16T18:26:41.174Z,98081.00
2019-04-16T18:30:43.997Z,98088.00
2019-04-16T18:35:03.375Z,98088.00
2019-04-16T18:39:19.188Z,98084.00
2019-04-16T18:43:22.155Z,98098.00
2019-04-16T18:47:28.272Z,98109.00
2019-04-16T18:51:32.925Z,98111.00
2019-04-16T18:55:32.441Z,98120.00
2019-04-16T18:59:33.341Z,98116.00
2019-04-16T19:03:34.365Z,98121.00
2019-04-16T19:07:35.325Z,98129.00
2019-04-16T19:11:36.453Z,98130.00
2019-04-16T19:15:37.535Z,98124.00
2019-04-16T19:19:38.634Z,98130.00
2019-04-16T19:23:39.598Z,98142.00
2019-04-16T19:27:40.610Z,98141.00
2019-04-16T19:31:41.903Z,98140.00
2019-04-16T19:35:42.847Z,98147.00
2019-04-16T19:39:46.755Z,98151.00
2019-04-16T19:43:47.168Z,98154.00
2019-04-16T19:47:48.909Z,98165.00
2019-04-16T19:51:50.076Z,98163.00
2019-04-16T19:55:51.291Z,98167.00
2019-04-16T19:59:52.736Z,98176.00
2019-04-16T20:03:54.482Z,98182.00
2019-04-16T20:07:55.833Z,98187.00
2019-04-16T20:11:56.832Z,98185.00
2019-04-16T20:16:00.366Z,98185.00
2019-04-16T20:20:00.619Z,98197.00
2019-04-16T20:24:01.612Z,98189.00
2019-04-16T20:28:03.314Z,98192.00
2019-04-16T20:32:04.208Z,98191.00
2019-04-16T20:36:05.327Z,98190.00
2019-04-16T20:40:07.033Z,98193.00
2019-04-16T20:44:09.182Z,98186.00
2019-04-16T20:48:12.547Z,98190.00
2019-04-16T20:52:14.018Z,98197.00
2019-04-16T20:56:19.960Z,98209.00
2019-04-16T21:00:20.144Z,98211.00
2019-04-16T21:04:24.994Z,98208.00
2019-04-16T21:08:26.198Z,98218.00
2019-04-16T21:12:27.380Z,98213.00
2019-04-16T21:16:33.465Z,98213.00
2019-04-16T21:20:31.826Z,98221.00
2019-04-16T21:24:32.790Z,98212.00
2019-04-16T21:28:45.032Z,98212.00
2019-04-16T21:33:00.403Z,98220.00
2019-04-16T21:37:08.901Z,98222.00
2019-04-16T21:41:06.660Z,98228.00
2019-04-16T21:45:08.885Z,98237.00
2019-04-16T21:49:09.895Z,98252.00
2019-04-16T21:53:13.521Z,98245.00
2019-04-16T21:57:14.498Z,98242.00
2019-04-16T22:01:17.519Z,98245.00
2019-04-16T22:05:18.643Z,98246.00
2019-04-16T22:09:19.811Z,98249.00
2019-04-16T22:13:21.002Z,98250.00
2019-04-16T22:17:22.351Z,98255.00
2019-04-16T22:21:23.211Z,98250.00
2019-04-16T22:25:26.890Z,98252.00
2019-04-16T22:29:26.903Z,98246.00
2019-04-16T22:33:27.896Z,98249.00
2019-04-16T22:37:28.883Z,98257.00
2019-04-16T22:41:34.794Z,98263.00
2019-04-16T22:45:37.578Z,98262.00
2019-04-16T22:49:38.483Z,98264.00
2019-04-16T22:53:39.362Z,98262.00
2019-04-16T22:57:40.251Z,98268.00
2019-04-16T23:01:44.988Z,98268.00
2019-04-16T23:05:46.023Z,98278.00
2019-04-16T23:09:48.701Z,98275.00
2019-04-16T23:13:49.894Z,98272.00
2019-04-16T23:17:50.855Z,98283.00
2019-04-16T23:21:51.851Z,98263.00
2019-04-16T23:25:52.826Z,98267.00
2019-04-16T23:29:53.968Z,98262.00
2019-04-16T23:33:54.822Z,98265.00
2019-04-16T23:37:59.300Z,98265.00
2019-04-16T23:41:58.870Z,98260.00
2019-04-16T23:46:10.769Z,98253.00
2019-04-16T23:50:16.441Z,98249.00
2019-04-16T23:54:19.265Z,98252.00
2019-04-16T23:58:22.166Z,98244.00
